^^
Station Historical Data
 
Daily Summary for May 29, 2017 Units:  English    Metric   Both
« Previous Day
Next Day »
Daily Weekly Monthly Yearly Custom
  Current: High: Low: Average:
Temperature: 58.6 °F 59.7 °F 58.5 °F 58.9 °F
Dew Point: 57.7 °F 58.6 °F 57.6 °F 57.9 °F
Humidity: 97% 98% 96% 97%
Wind Speed: 0.0mph 0.0mph 0.0mph 0mph
Wind Gust: 0.0mph 1.0mph - -
WindCalm - - North
Pressure: 30.03 in 30.03 in 30.01 in -
Precipitation: 0.00 in      
Historical Graphs
 
 
Tabular Data for May 29, 2017
Time Temperature Dew Point Pressure Wind Wind Speed Wind Gust Humidity Rainfall Rate (Hourly)
00:04 59.7 °F 58.6 °F 30.01 in Calm     96% 0.00 in
00:09 59.7 °F 58.6 °F 30.01 in Calm     96% 0.00 in
00:14 59.5 °F 58.5 °F 30.01 in Calm   1.0 mph 96% 0.00 in
00:19 59.4 °F 58.3 °F 30.01 in Calm     96% 0.00 in
00:24 59.4 °F 58.3 °F 30.01 in Calm     96% 0.00 in
00:29 59.4 °F 58.3 °F 30.01 in Calm     96% 0.00 in
00:34 59.2 °F 58.1 °F 30.01 in Calm     96% 0.00 in
00:39 59.0 °F 57.9 °F 30.02 in Calm     96% 0.00 in
00:44 59.0 °F 57.9 °F 30.02 in Calm     96% 0.00 in
00:49 58.8 °F 57.7 °F 30.02 in Calm     96% 0.00 in
00:54 58.6 °F 57.6 °F 30.02 in Calm     96% 0.00 in
00:59 58.6 °F 57.6 °F 30.02 in Calm     96% 0.00 in
01:04 58.5 °F 57.6 °F 30.02 in Calm     97% 0.00 in
01:09 58.6 °F 57.7 °F 30.02 in Calm     97% 0.00 in
01:14 58.6 °F 57.7 °F 30.03 in Calm     97% 0.00 in
01:19 58.6 °F 57.7 °F 30.03 in Calm     97% 0.00 in
01:29 58.6 °F 57.7 °F 30.03 in Calm     97% 0.00 in
01:34 58.6 °F 57.7 °F 30.03 in Calm     97% 0.00 in
01:39 58.6 °F 57.7 °F 30.03 in Calm     97% 0.00 in
01:44 58.6 °F 57.7 °F 30.03 in Calm     97% 0.00 in
01:49 58.6 °F 57.7 °F 30.03 in Calm     97% 0.00 in
01:54 58.8 °F 57.9 °F 30.03 in Calm     97% 0.00 in
01:59 59.0 °F 58.5 °F 30.03 in Calm     98% 0.00 in
02:04 59.2 °F 58.6 °F 30.03 in Calm     98% 0.00 in
02:09 59.0 °F 58.1 °F 30.03 in Calm     97% 0.00 in
02:14 59.0 °F 58.1 °F 30.03 in Calm     97% 0.00 in
02:19 59.0 °F 58.1 °F 30.03 in Calm     97% 0.00 in
02:24 59.0 °F 58.1 °F 30.03 in Calm     97% 0.00 in
02:27 59.0 °F 58.1 °F 30.03 in Calm     97% 0.00 in
02:32 58.8 °F 57.9 °F 30.03 in Calm     97% 0.00 in
02:37 58.8 °F 57.9 °F 30.03 in Calm     97% 0.00 in
02:41 58.8 °F 57.9 °F 30.02 in Calm     97% 0.00 in
02:46 58.8 °F 57.9 °F 30.02 in Calm     97% 0.00 in
02:52 58.8 °F 57.9 °F 30.03 in Calm     97% 0.00 in
02:57 58.6 °F 57.7 °F 30.02 in Calm     97% 0.00 in
03:02 58.6 °F 57.7 °F 30.03 in Calm     97% 0.00 in
03:07 58.8 °F 57.9 °F 30.03 in Calm     97% 0.00 in
03:12 58.6 °F 57.7 °F 30.03 in Calm     97% 0.00 in
03:17 58.6 °F 57.7 °F 30.03 in Calm     97% 0.00 in
03:22 58.8 °F 57.9 °F 30.02 in Calm     97% 0.00 in
03:27 58.6 °F 57.7 °F 30.03 in Calm     97% 0.00 in
WheeWeather.com
Compliments of Weather Underground - 1.25 mb